This is the latest recevied weather packets stored in our database for station/object EA1GGY-1. If no packets are shown the sender has not sent any weather packets the latest 10 day(s).
| Time | Temp. | Humidity | Pressure | Rain* | Wind** | Luminosity | Snow |
|---|---|---|---|---|---|---|---|
| 1777475369 | 12.78° C | 80% | 1003.8 hPa | - | - | - | - |
| 1777474769 | 12.78° C | 84% | 1004.1 hPa | - | - | - | - |
| 1777474167 | 12.22° C | 83% | 1004.1 hPa | - | - | - | - |
| 1777473567 | 12.22° C | 83% | 1004 hPa | - | - | - | - |
| 1777472966 | 12.78° C | 80% | 1003.9 hPa | - | - | - | - |
| 1777472365 | 12.22° C | 81% | 1003.8 hPa | - | - | - | - |
| 1777471764 | 12.22° C | 83% | 1004 hPa | - | - | - | - |
| 1777471165 | 12.22° C | 82% | 1004 hPa | - | - | - | - |
| 1777470562 | 12.78° C | 81% | 1003.8 hPa | - | - | - | - |
| 1777469961 | 12.78° C | 78% | 1003.7 hPa | - | - | - | - |
| 1777469361 | 12.78° C | 79% | 1003.7 hPa | - | - | - | - |
| 1777468760 | 12.78° C | 79% | 1003.7 hPa | - | - | - | - |
| 1777468159 | 11.67° C | 80% | 1003.8 hPa | - | - | - | - |
| 1777467559 | 12.22° C | 82% | 1003.8 hPa | - | - | - | - |
| 1777466958 | 12.22° C | 82% | 1003.7 hPa | - | - | - | - |
| 1777466356 | 12.22° C | 80% | 1003.7 hPa | - | - | - | - |
| 1777465755 | 12.22° C | 80% | 1003.7 hPa | - | - | - | - |
| 1777465154 | 12.22° C | 80% | 1003.7 hPa | - | - | - | - |
| 1777464553 | 12.22° C | 81% | 1003.7 hPa | - | - | - | - |
| 1777463954 | 12.22° C | 79% | 1003.8 hPa | - | - | - | - |
| 1777463352 | 11.67° C | 79% | 1003.9 hPa | - | - | - | - |
| 1777462752 | 12.22° C | 78% | 1003.9 hPa | - | - | - | - |
| 1777462152 | 11.67° C | 79% | 1003.9 hPa | - | - | - | - |
| 1777461550 | 11.67° C | 81% | 1003.9 hPa | - | - | - | - |
| 1777460949 | 11.67° C | 81% | 1003.9 hPa | - | - | - | - |
* Rain since midnight (hover to see other rain measurements)
** Current wind speed in m/s (hover to see current wind gust speed)